This is the latest recevied weather packets stored in our database for station/object KJ6LNH-1. If no packets are shown the sender has not sent any weather packets the latest 10 day(s).
| Time | Temp. | Humidity | Pressure | Rain* | Wind** | Luminosity | Snow |
|---|---|---|---|---|---|---|---|
| 1777584608 | 27.78° C | 40% | 1011.7 hPa | 0 mm | - | - | - |
| 1777584308 | 27.78° C | 40% | 1011.7 hPa | 0 mm | - | - | - |
| 1777584008 | 27.78° C | 40% | 1011.7 hPa | 0 mm | - | - | - |
| 1777583407 | 27.78° C | 39% | 1011.8 hPa | 0 mm | - | - | - |
| 1777583125 | 27.78° C | 39% | 1011.8 hPa | 0 mm | - | - | - |
| 1777581307 | 26.11° C | 39% | 1012 hPa | 0 mm | - | - | - |
| 1777581008 | 26.67° C | 38% | 1012 hPa | 0 mm | - | - | - |
| 1777580707 | 26.11° C | 40% | 1012.1 hPa | 0 mm | - | - | - |
| 1777580407 | 25.56° C | 40% | 1012.2 hPa | 0 mm | - | - | - |
| 1777580109 | 26.11° C | 40% | 1012.2 hPa | 0 mm | - | - | - |
| 1777579807 | 26.11° C | 40% | 1012.2 hPa | 0 mm | - | - | - |
| 1777579208 | 25° C | 41% | 1012.4 hPa | 0 mm | - | - | - |
| 1777577708 | 23.89° C | 43% | 1012.5 hPa | 0 mm | - | - | - |
| 1777577107 | 23.89° C | 43% | 1012.6 hPa | 0 mm | - | - | - |
| 1777576507 | 23.89° C | 43% | 1012.7 hPa | 0 mm | - | - | - |
| 1777576208 | 23.89° C | 42% | 1012.8 hPa | 0 mm | - | - | - |
| 1777574408 | 22.78° C | 46% | 1013.1 hPa | 0 mm | - | - | - |
| 1777574107 | 22.22° C | 47% | 1013.1 hPa | 0 mm | - | - | - |
| 1777573507 | 22.22° C | 48% | 1013.2 hPa | 0 mm | - | - | - |
| 1777573207 | 21.67° C | 48% | 1013.2 hPa | 0 mm | - | - | - |
| 1777572908 | 21.67° C | 48% | 1013.1 hPa | 0 mm | - | - | - |
| 1777572308 | 21.11° C | 49% | 1013.1 hPa | 0 mm | - | - | - |
| 1777570507 | 19.44° C | 54% | 1013.3 hPa | 0 mm | - | - | - |
| 1777569908 | 19.44° C | 57% | 1013.3 hPa | 0 mm | - | - | - |
| 1777569008 | 18.33° C | 60% | 1013.3 hPa | 0 mm | - | - | - |
* Rain latest hour (hover to see other rain measurements)
** Current wind speed in m/s (hover to see current wind gust speed)